sensor_id;sensor_type;location;lat;lon;timestamp;pressure;altitude;pressure_sealevel;temperature;humidity
60646;BME280;46462;32.608;-117.032;2023-11-22T00:00:00;100125.31;;;24.12;22.76
60646;BME280;46462;32.608;-117.032;2023-11-22T00:02:31;100129.00;;;24.47;22.46
60646;BME280;46462;32.608;-117.032;2023-11-22T00:05:02;100131.66;;;24.57;22.40
60646;BME280;46462;32.608;-117.032;2023-11-22T00:07:32;100133.13;;;24.33;22.83
60646;BME280;46462;32.608;-117.032;2023-11-22T00:10:08;100132.53;;;24.39;23.00
60646;BME280;46462;32.608;-117.032;2023-11-22T00:12:37;100133.92;;;24.20;23.35
60646;BME280;46462;32.608;-117.032;2023-11-22T00:15:08;100127.98;;;24.10;23.51
60646;BME280;46462;32.608;-117.032;2023-11-22T00:17:38;100127.93;;;22.97;25.11
60646;BME280;46462;32.608;-117.032;2023-11-22T00:20:10;100125.31;;;22.13;26.34
60646;BME280;46462;32.608;-117.032;2023-11-22T00:22:39;100123.06;;;21.87;26.98
60646;BME280;46462;32.608;-117.032;2023-11-22T00:25:10;100122.73;;;22.46;26.25
60646;BME280;46462;32.608;-117.032;2023-11-22T00:27:41;100121.99;;;22.65;26.19
60646;BME280;46462;32.608;-117.032;2023-11-22T00:30:13;100120.41;;;22.80;26.24
60646;BME280;46462;32.608;-117.032;2023-11-22T00:32:42;100106.05;;;24.02;24.69
60646;BME280;46462;32.608;-117.032;2023-11-22T00:35:13;100100.60;;;24.94;23.68
60646;BME280;46462;32.608;-117.032;2023-11-22T00:37:43;100101.86;;;25.45;22.69
60646;BME280;46462;32.608;-117.032;2023-11-22T00:40:14;100106.05;;;25.80;22.81
60646;BME280;46462;32.608;-117.032;2023-11-22T00:42:45;100104.51;;;26.03;22.61
60646;BME280;46462;32.608;-117.032;2023-11-22T00:45:16;100107.27;;;26.20;22.39
60646;BME280;46462;32.608;-117.032;2023-11-22T00:47:46;100107.29;;;26.30;22.50
60646;BME280;46462;32.608;-117.032;2023-11-22T00:50:17;100106.40;;;26.36;22.55
60646;BME280;46462;32.608;-117.032;2023-11-22T00:52:48;100107.24;;;26.41;22.57
60646;BME280;46462;32.608;-117.032;2023-11-22T00:55:18;100104.67;;;26.41;22.66
60646;BME280;46462;32.608;-117.032;2023-11-22T00:57:49;100103.70;;;26.44;22.74
60646;BME280;46462;32.608;-117.032;2023-11-22T01:00:20;100102.92;;;26.47;22.47
60646;BME280;46462;32.608;-117.032;2023-11-22T01:02:51;100099.16;;;26.48;22.41
60646;BME280;46462;32.608;-117.032;2023-11-22T01:05:21;100103.70;;;26.47;22.63
60646;BME280;46462;32.608;-117.032;2023-11-22T01:07:52;100106.13;;;26.49;22.65
60646;BME280;46462;32.608;-117.032;2023-11-22T01:10:22;100107.63;;;26.49;22.62
60646;BME280;46462;32.608;-117.032;2023-11-22T01:12:53;100109.49;;;26.48;22.56
60646;BME280;46462;32.608;-117.032;2023-11-22T01:15:24;100118.24;;;26.47;22.73
60646;BME280;46462;32.608;-117.032;2023-11-22T01:17:55;100126.14;;;26.47;22.92
60646;BME280;46462;32.608;-117.032;2023-11-22T01:20:25;100129.01;;;26.47;22.99
60646;BME280;46462;32.608;-117.032;2023-11-22T01:22:56;100127.62;;;26.47;22.99
60646;BME280;46462;32.608;-117.032;2023-11-22T01:25:27;100126.06;;;26.46;23.07
60646;BME280;46462;32.608;-117.032;2023-11-22T01:27:57;100130.71;;;26.46;23.09
60646;BME280;46462;32.608;-117.032;2023-11-22T01:30:28;100133.09;;;26.44;23.31
60646;BME280;46462;32.608;-117.032;2023-11-22T01:32:58;100133.79;;;26.43;23.42
60646;BME280;46462;32.608;-117.032;2023-11-22T01:35:29;100136.07;;;26.42;23.45
60646;BME280;46462;32.608;-117.032;2023-11-22T01:38:00;100137.98;;;26.43;23.33
60646;BME280;46462;32.608;-117.032;2023-11-22T01:40:31;100141.96;;;26.41;23.44
60646;BME280;46462;32.608;-117.032;2023-11-22T01:43:01;100144.64;;;26.42;23.50
60646;BME280;46462;32.608;-117.032;2023-11-22T01:45:32;100144.75;;;26.40;23.59
60646;BME280;46462;32.608;-117.032;2023-11-22T01:48:03;100151.13;;;26.40;23.61
60646;BME280;46462;32.608;-117.032;2023-11-22T01:50:33;100155.85;;;26.38;23.74
60646;BME280;46462;32.608;-117.032;2023-11-22T01:53:04;100158.80;;;26.36;23.75
60646;BME280;46462;32.608;-117.032;2023-11-22T01:55:35;100156.03;;;26.35;23.85
60646;BME280;46462;32.608;-117.032;2023-11-22T01:58:05;100158.02;;;26.36;23.91
60646;BME280;46462;32.608;-117.032;2023-11-22T02:00:43;100160.72;;;26.35;24.01
60646;BME280;46462;32.608;-117.032;2023-11-22T02:03:07;100161.16;;;26.36;24.04
60646;BME280;46462;32.608;-117.032;2023-11-22T02:05:40;100158.69;;;26.34;24.21
60646;BME280;46462;32.608;-117.032;2023-11-22T02:08:09;100159.77;;;26.34;24.30
60646;BME280;46462;32.608;-117.032;2023-11-22T02:10:39;100162.12;;;26.32;24.42
60646;BME280;46462;32.608;-117.032;2023-11-22T02:13:09;100164.85;;;26.33;24.57
60646;BME280;46462;32.608;-117.032;2023-11-22T02:15:40;100165.12;;;26.31;24.62
60646;BME280;46462;32.608;-117.032;2023-11-22T02:18:11;100165.89;;;26.31;24.74
60646;BME280;46462;32.608;-117.032;2023-11-22T02:20:43;100164.38;;;26.28;24.90
60646;BME280;46462;32.608;-117.032;2023-11-22T02:23:12;100160.22;;;26.28;25.02
60646;BME280;46462;32.608;-117.032;2023-11-22T02:25:43;100159.85;;;26.26;25.03
60646;BME280;46462;32.608;-117.032;2023-11-22T02:28:14;100160.83;;;26.26;25.13
60646;BME280;46462;32.608;-117.032;2023-11-22T02:30:44;100164.02;;;26.24;25.25
60646;BME280;46462;32.608;-117.032;2023-11-22T02:33:15;100161.63;;;26.24;25.35
60646;BME280;46462;32.608;-117.032;2023-11-22T02:35:45;100158.64;;;26.23;25.41
60646;BME280;46462;32.608;-117.032;2023-11-22T02:38:16;100157.61;;;26.23;25.44
60646;BME280;46462;32.608;-117.032;2023-11-22T02:40:47;100156.69;;;26.21;25.54
60646;BME280;46462;32.608;-117.032;2023-11-22T02:43:17;100156.23;;;26.20;25.80
60646;BME280;46462;32.608;-117.032;2023-11-22T02:45:48;100154.69;;;26.19;25.81
60646;BME280;46462;32.608;-117.032;2023-11-22T02:48:19;100150.04;;;26.18;25.94
60646;BME280;46462;32.608;-117.032;2023-11-22T02:50:50;100147.12;;;26.16;26.18
60646;BME280;46462;32.608;-117.032;2023-11-22T02:53:20;100143.54;;;26.15;26.41
60646;BME280;46462;32.608;-117.032;2023-11-22T02:55:51;100144.01;;;26.14;26.58
60646;BME280;46462;32.608;-117.032;2023-11-22T02:58:21;100142.29;;;26.12;26.77
60646;BME280;46462;32.608;-117.032;2023-11-22T03:00:52;100142.50;;;26.10;27.19
60646;BME280;46462;32.608;-117.032;2023-11-22T03:03:22;100141.50;;;26.10;27.23
60646;BME280;46462;32.608;-117.032;2023-11-22T03:05:53;100141.62;;;26.09;27.48
60646;BME280;46462;32.608;-117.032;2023-11-22T03:08:23;100138.48;;;26.09;27.58
60646;BME280;46462;32.608;-117.032;2023-11-22T03:10:54;100139.45;;;26.07;27.66
60646;BME280;46462;32.608;-117.032;2023-11-22T03:13:25;100142.82;;;26.06;27.69
60646;BME280;46462;32.608;-117.032;2023-11-22T03:15:56;100141.92;;;26.05;27.87
60646;BME280;46462;32.608;-117.032;2023-11-22T03:18:26;100144.34;;;26.05;28.02
60646;BME280;46462;32.608;-117.032;2023-11-22T03:20:57;100141.13;;;26.03;28.11
60646;BME280;46462;32.608;-117.032;2023-11-22T03:23:27;100140.69;;;26.01;28.21
60646;BME280;46462;32.608;-117.032;2023-11-22T03:25:58;100135.54;;;25.99;28.35
60646;BME280;46462;32.608;-117.032;2023-11-22T03:28:29;100138.42;;;25.98;28.35
60646;BME280;46462;32.608;-117.032;2023-11-22T03:30:59;100137.88;;;25.96;28.39
60646;BME280;46462;32.608;-117.032;2023-11-22T03:33:30;100136.08;;;25.97;28.33
60646;BME280;46462;32.608;-117.032;2023-11-22T03:36:00;100137.12;;;25.95;28.36
60646;BME280;46462;32.608;-117.032;2023-11-22T03:38:30;100139.58;;;25.95;28.35
60646;BME280;46462;32.608;-117.032;2023-11-22T03:41:01;100146.09;;;25.93;28.39
60646;BME280;46462;32.608;-117.032;2023-11-22T03:43:32;100147.45;;;25.93;28.47
60646;BME280;46462;32.608;-117.032;2023-11-22T03:46:02;100149.66;;;25.92;28.53
60646;BME280;46462;32.608;-117.032;2023-11-22T03:48:33;100150.91;;;25.91;28.44
60646;BME280;46462;32.608;-117.032;2023-11-22T03:51:04;100150.59;;;25.89;28.42
60646;BME280;46462;32.608;-117.032;2023-11-22T03:53:34;100152.43;;;25.88;28.36
60646;BME280;46462;32.608;-117.032;2023-11-22T03:56:06;100154.98;;;25.87;28.40
60646;BME280;46462;32.608;-117.032;2023-11-22T03:58:36;100157.62;;;25.87;28.46
60646;BME280;46462;32.608;-117.032;2023-11-22T04:01:06;100160.00;;;25.86;28.50
60646;BME280;46462;32.608;-117.032;2023-11-22T04:03:37;100159.84;;;25.84;28.54
60646;BME280;46462;32.608;-117.032;2023-11-22T04:06:08;100157.84;;;25.85;28.61
60646;BME280;46462;32.608;-117.032;2023-11-22T04:08:38;100162.74;;;25.82;28.84
60646;BME280;46462;32.608;-117.032;2023-11-22T04:11:09;100161.88;;;25.80;28.74
60646;BME280;46462;32.608;-117.032;2023-11-22T04:13:40;100157.99;;;25.79;28.78
60646;BME280;46462;32.608;-117.032;2023-11-22T04:16:10;100155.10;;;25.77;28.74
60646;BME280;46462;32.608;-117.032;2023-11-22T04:18:41;100151.81;;;25.76;28.82
60646;BME280;46462;32.608;-117.032;2023-11-22T04:21:11;100150.96;;;25.75;28.75
60646;BME280;46462;32.608;-117.032;2023-11-22T04:23:41;100145.14;;;25.75;28.65
60646;BME280;46462;32.608;-117.032;2023-11-22T04:26:12;100139.83;;;25.73;28.68
60646;BME280;46462;32.608;-117.032;2023-11-22T04:28:43;100137.92;;;25.70;28.74
60646;BME280;46462;32.608;-117.032;2023-11-22T04:31:14;100133.27;;;25.69;28.82
60646;BME280;46462;32.608;-117.032;2023-11-22T04:33:44;100130.06;;;25.68;29.01
60646;BME280;46462;32.608;-117.032;2023-11-22T04:36:15;100128.23;;;25.66;29.04
60646;BME280;46462;32.608;-117.032;2023-11-22T04:38:46;100132.19;;;25.66;29.12
60646;BME280;46462;32.608;-117.032;2023-11-22T04:41:16;100137.29;;;25.66;29.31
60646;BME280;46462;32.608;-117.032;2023-11-22T04:43:47;100137.53;;;25.63;29.44
60646;BME280;46462;32.608;-117.032;2023-11-22T04:46:18;100139.67;;;25.61;29.42
60646;BME280;46462;32.608;-117.032;2023-11-22T04:48:49;100133.49;;;25.60;29.48
60646;BME280;46462;32.608;-117.032;2023-11-22T04:51:19;100135.15;;;25.58;29.54
60646;BME280;46462;32.608;-117.032;2023-11-22T04:53:50;100134.42;;;25.57;29.59
60646;BME280;46462;32.608;-117.032;2023-11-22T04:56:20;100132.50;;;25.55;29.61
60646;BME280;46462;32.608;-117.032;2023-11-22T04:58:51;100131.08;;;25.53;29.65
60646;BME280;46462;32.608;-117.032;2023-11-22T05:01:22;100130.93;;;25.53;29.75
60646;BME280;46462;32.608;-117.032;2023-11-22T05:03:52;100126.38;;;25.49;29.65
60646;BME280;46462;32.608;-117.032;2023-11-22T05:06:23;100123.61;;;25.47;29.67
60646;BME280;46462;32.608;-117.032;2023-11-22T05:08:54;100121.10;;;25.43;29.68
60646;BME280;46462;32.608;-117.032;2023-11-22T05:11:24;100118.91;;;25.43;29.77
60646;BME280;46462;32.608;-117.032;2023-11-22T05:13:55;100113.42;;;25.41;29.79
60646;BME280;46462;32.608;-117.032;2023-11-22T05:16:26;100115.03;;;25.38;29.89
60646;BME280;46462;32.608;-117.032;2023-11-22T05:18:56;100116.80;;;25.37;29.94
60646;BME280;46462;32.608;-117.032;2023-11-22T05:21:27;100112.84;;;25.36;30.07
60646;BME280;46462;32.608;-117.032;2023-11-22T05:23:57;100110.50;;;25.35;30.06
60646;BME280;46462;32.608;-117.032;2023-11-22T05:26:28;100111.71;;;25.36;30.06
60646;BME280;46462;32.608;-117.032;2023-11-22T05:28:59;100112.34;;;25.33;30.09
60646;BME280;46462;32.608;-117.032;2023-11-22T05:31:29;100109.92;;;25.31;30.03
60646;BME280;46462;32.608;-117.032;2023-11-22T05:34:00;100112.43;;;25.26;30.03
60646;BME280;46462;32.608;-117.032;2023-11-22T05:36:31;100108.20;;;25.23;30.08
60646;BME280;46462;32.608;-117.032;2023-11-22T05:39:02;100107.17;;;25.25;30.10
60646;BME280;46462;32.608;-117.032;2023-11-22T05:41:32;100105.71;;;25.21;29.99
60646;BME280;46462;32.608;-117.032;2023-11-22T05:44:03;100106.99;;;25.18;30.02
60646;BME280;46462;32.608;-117.032;2023-11-22T05:46:34;100107.25;;;25.15;29.84
60646;BME280;46462;32.608;-117.032;2023-11-22T05:49:04;100106.63;;;25.11;29.70
60646;BME280;46462;32.608;-117.032;2023-11-22T05:51:35;100102.81;;;25.14;29.70
60646;BME280;46462;32.608;-117.032;2023-11-22T05:54:06;100102.48;;;25.07;29.80
60646;BME280;46462;32.608;-117.032;2023-11-22T05:56:36;100098.83;;;25.03;29.42
60646;BME280;46462;32.608;-117.032;2023-11-22T05:59:07;100099.72;;;25.04;29.39
60646;BME280;46462;32.608;-117.032;2023-11-22T06:01:37;100099.52;;;25.04;29.41
60646;BME280;46462;32.608;-117.032;2023-11-22T06:04:08;100100.34;;;25.00;29.39
60646;BME280;46462;32.608;-117.032;2023-11-22T06:06:38;100102.01;;;25.01;29.23
60646;BME280;46462;32.608;-117.032;2023-11-22T06:09:09;100103.88;;;25.02;29.19
60646;BME280;46462;32.608;-117.032;2023-11-22T06:11:40;100103.25;;;25.02;29.24
60646;BME280;46462;32.608;-117.032;2023-11-22T06:14:10;100102.15;;;25.00;29.58
60646;BME280;46462;32.608;-117.032;2023-11-22T06:16:41;100101.41;;;25.01;29.36
60646;BME280;46462;32.608;-117.032;2023-11-22T06:19:11;100105.33;;;24.98;29.40
60646;BME280;46462;32.608;-117.032;2023-11-22T06:21:42;100096.95;;;24.96;29.39
60646;BME280;46462;32.608;-117.032;2023-11-22T06:24:12;100092.36;;;24.96;29.52
60646;BME280;46462;32.608;-117.032;2023-11-22T06:26:43;100091.20;;;24.95;29.65
60646;BME280;46462;32.608;-117.032;2023-11-22T06:29:13;100086.19;;;24.97;29.56
60646;BME280;46462;32.608;-117.032;2023-11-22T06:31:44;100091.36;;;24.98;29.72
60646;BME280;46462;32.608;-117.032;2023-11-22T06:34:14;100091.12;;;24.98;29.69
60646;BME280;46462;32.608;-117.032;2023-11-22T06:36:45;100094.69;;;24.94;29.75
60646;BME280;46462;32.608;-117.032;2023-11-22T06:39:15;100096.20;;;24.89;29.93
60646;BME280;46462;32.608;-117.032;2023-11-22T06:41:46;100093.07;;;24.86;29.82
60646;BME280;46462;32.608;-117.032;2023-11-22T06:44:17;100094.89;;;24.81;29.79
60646;BME280;46462;32.608;-117.032;2023-11-22T06:46:47;100091.82;;;24.84;29.57
60646;BME280;46462;32.608;-117.032;2023-11-22T06:49:18;100090.36;;;24.84;29.62
60646;BME280;46462;32.608;-117.032;2023-11-22T06:51:49;100092.16;;;24.82;29.45
60646;BME280;46462;32.608;-117.032;2023-11-22T06:54:20;100096.43;;;24.77;29.66
60646;BME280;46462;32.608;-117.032;2023-11-22T06:56:51;100089.58;;;24.75;29.67
60646;BME280;46462;32.608;-117.032;2023-11-22T06:59:21;100095.76;;;24.74;29.48
60646;BME280;46462;32.608;-117.032;2023-11-22T07:01:51;100085.54;;;24.75;29.39
60646;BME280;46462;32.608;-117.032;2023-11-22T07:04:22;100087.43;;;24.75;29.68
60646;BME280;46462;32.608;-117.032;2023-11-22T07:06:52;100086.47;;;24.75;29.53
60646;BME280;46462;32.608;-117.032;2023-11-22T07:09:23;100084.43;;;24.72;29.51
60646;BME280;46462;32.608;-117.032;2023-11-22T07:11:54;100084.16;;;24.65;29.70
60646;BME280;46462;32.608;-117.032;2023-11-22T07:14:25;100080.72;;;24.59;29.60
60646;BME280;46462;32.608;-117.032;2023-11-22T07:16:55;100080.67;;;24.62;29.65
60646;BME280;46462;32.608;-117.032;2023-11-22T07:19:26;100084.67;;;24.60;29.71
60646;BME280;46462;32.608;-117.032;2023-11-22T07:21:56;100082.20;;;24.53;30.12
60646;BME280;46462;32.608;-117.032;2023-11-22T07:24:27;100082.65;;;24.56;30.01
60646;BME280;46462;32.608;-117.032;2023-11-22T07:26:58;100080.20;;;24.61;29.79
60646;BME280;46462;32.608;-117.032;2023-11-22T07:29:28;100084.34;;;24.59;29.96
60646;BME280;46462;32.608;-117.032;2023-11-22T07:31:59;100087.33;;;24.57;29.96
60646;BME280;46462;32.608;-117.032;2023-11-22T07:34:29;100083.97;;;24.42;29.78
60646;BME280;46462;32.608;-117.032;2023-11-22T07:37:00;100086.98;;;24.41;29.90
60646;BME280;46462;32.608;-117.032;2023-11-22T07:39:31;100085.09;;;24.33;30.56
60646;BME280;46462;32.608;-117.032;2023-11-22T07:42:01;100085.55;;;24.33;30.10
60646;BME280;46462;32.608;-117.032;2023-11-22T07:44:32;100082.48;;;24.37;29.91
60646;BME280;46462;32.608;-117.032;2023-11-22T07:47:03;100080.84;;;24.34;30.23
60646;BME280;46462;32.608;-117.032;2023-11-22T07:49:34;100072.87;;;24.32;30.02
60646;BME280;46462;32.608;-117.032;2023-11-22T07:52:05;100066.44;;;24.42;30.03
60646;BME280;46462;32.608;-117.032;2023-11-22T07:54:35;100063.55;;;24.44;29.97
60646;BME280;46462;32.608;-117.032;2023-11-22T07:57:06;100058.25;;;24.44;30.31
60646;BME280;46462;32.608;-117.032;2023-11-22T07:59:36;100054.90;;;24.39;30.39
60646;BME280;46462;32.608;-117.032;2023-11-22T08:02:07;100057.82;;;24.39;30.10
60646;BME280;46462;32.608;-117.032;2023-11-22T08:04:38;100058.29;;;24.29;30.54
60646;BME280;46462;32.608;-117.032;2023-11-22T08:07:09;100053.86;;;24.31;30.49
60646;BME280;46462;32.608;-117.032;2023-11-22T08:09:39;100048.04;;;24.19;30.39
60646;BME280;46462;32.608;-117.032;2023-11-22T08:12:10;100046.17;;;24.26;30.22
60646;BME280;46462;32.608;-117.032;2023-11-22T08:14:41;100042.52;;;24.23;30.56
60646;BME280;46462;32.608;-117.032;2023-11-22T08:17:11;100032.54;;;24.22;30.51
60646;BME280;46462;32.608;-117.032;2023-11-22T08:19:42;100039.02;;;24.28;30.24
60646;BME280;46462;32.608;-117.032;2023-11-22T08:22:13;100032.60;;;24.10;30.43
60646;BME280;46462;32.608;-117.032;2023-11-22T08:24:43;100033.95;;;24.22;30.23
60646;BME280;46462;32.608;-117.032;2023-11-22T08:27:14;100026.84;;;24.21;30.51
60646;BME280;46462;32.608;-117.032;2023-11-22T08:29:44;100023.56;;;24.20;30.30
60646;BME280;46462;32.608;-117.032;2023-11-22T08:32:15;100026.00;;;24.20;30.42
60646;BME280;46462;32.608;-117.032;2023-11-22T08:34:46;100026.87;;;24.20;30.35
60646;BME280;46462;32.608;-117.032;2023-11-22T08:37:16;100022.93;;;24.15;30.44
60646;BME280;46462;32.608;-117.032;2023-11-22T08:39:47;100020.57;;;24.04;31.04
60646;BME280;46462;32.608;-117.032;2023-11-22T08:42:18;100017.65;;;23.95;30.68
60646;BME280;46462;32.608;-117.032;2023-11-22T08:44:48;100007.82;;;23.89;30.94
60646;BME280;46462;32.608;-117.032;2023-11-22T08:47:19;100009.76;;;23.95;30.73
60646;BME280;46462;32.608;-117.032;2023-11-22T08:49:50;100004.92;;;23.86;30.65
60646;BME280;46462;32.608;-117.032;2023-11-22T08:52:21;100001.11;;;23.93;30.57
60646;BME280;46462;32.608;-117.032;2023-11-22T08:54:51;99999.96;;;23.85;31.16
60646;BME280;46462;32.608;-117.032;2023-11-22T08:57:22;99997.09;;;23.91;30.82
60646;BME280;46462;32.608;-117.032;2023-11-22T08:59:53;99993.47;;;23.82;30.55
60646;BME280;46462;32.608;-117.032;2023-11-22T09:02:23;99983.69;;;23.85;30.48
60646;BME280;46462;32.608;-117.032;2023-11-22T09:04:54;99978.51;;;23.80;30.78
60646;BME280;46462;32.608;-117.032;2023-11-22T09:07:25;99978.98;;;23.79;30.80
60646;BME280;46462;32.608;-117.032;2023-11-22T09:09:55;99982.17;;;23.70;30.81
60646;BME280;46462;32.608;-117.032;2023-11-22T09:12:26;99986.28;;;23.79;30.49
60646;BME280;46462;32.608;-117.032;2023-11-22T09:14:57;99981.02;;;23.72;30.96
60646;BME280;46462;32.608;-117.032;2023-11-22T09:17:28;99977.66;;;23.75;30.71
60646;BME280;46462;32.608;-117.032;2023-11-22T09:19:58;99981.23;;;23.85;30.53
60646;BME280;46462;32.608;-117.032;2023-11-22T09:22:29;99979.44;;;23.75;30.50
60646;BME280;46462;32.608;-117.032;2023-11-22T09:24:59;99987.11;;;23.61;30.70
60646;BME280;46462;32.608;-117.032;2023-11-22T09:27:30;99984.17;;;23.59;30.86
60646;BME280;46462;32.608;-117.032;2023-11-22T09:30:01;99978.24;;;23.63;30.66
60646;BME280;46462;32.608;-117.032;2023-11-22T09:32:31;99980.57;;;23.58;30.74
60646;BME280;46462;32.608;-117.032;2023-11-22T09:35:02;99972.46;;;23.59;30.68
60646;BME280;46462;32.608;-117.032;2023-11-22T09:37:33;99972.58;;;23.64;30.88
60646;BME280;46462;32.608;-117.032;2023-11-22T09:40:08;99976.87;;;23.50;30.98
60646;BME280;46462;32.608;-117.032;2023-11-22T09:42:37;99969.83;;;23.46;31.07
60646;BME280;46462;32.608;-117.032;2023-11-22T09:45:08;99965.98;;;23.43;31.05
60646;BME280;46462;32.608;-117.032;2023-11-22T09:47:39;99961.19;;;23.46;31.05
60646;BME280;46462;32.608;-117.032;2023-11-22T09:50:10;99964.46;;;23.45;31.01
60646;BME280;46462;32.608;-117.032;2023-11-22T09:52:41;99963.11;;;23.44;30.92
60646;BME280;46462;32.608;-117.032;2023-11-22T09:55:10;99954.97;;;23.54;30.61
60646;BME280;46462;32.608;-117.032;2023-11-22T09:57:41;99955.97;;;23.54;30.91
60646;BME280;46462;32.608;-117.032;2023-11-22T10:00:12;99951.12;;;23.64;30.55
60646;BME280;46462;32.608;-117.032;2023-11-22T10:02:42;99950.51;;;23.55;30.82
60646;BME280;46462;32.608;-117.032;2023-11-22T10:05:13;99957.67;;;23.39;31.11
60646;BME280;46462;32.608;-117.032;2023-11-22T10:07:43;99959.72;;;23.37;31.02
60646;BME280;46462;32.608;-117.032;2023-11-22T10:10:15;99961.73;;;23.36;30.93
60646;BME280;46462;32.608;-117.032;2023-11-22T10:12:45;99962.58;;;23.34;31.23
60646;BME280;46462;32.608;-117.032;2023-11-22T10:15:16;99965.82;;;23.32;31.00
60646;BME280;46462;32.608;-117.032;2023-11-22T10:17:55;99961.84;;;23.32;31.09
60646;BME280;46462;32.608;-117.032;2023-11-22T10:20:17;99965.99;;;23.37;31.03
60646;BME280;46462;32.608;-117.032;2023-11-22T10:22:48;99957.44;;;23.31;31.27
60646;BME280;46462;32.608;-117.032;2023-11-22T10:25:18;99956.62;;;23.45;30.75
60646;BME280;46462;32.608;-117.032;2023-11-22T10:27:49;99947.44;;;23.41;30.77
60646;BME280;46462;32.608;-117.032;2023-11-22T10:30:20;99947.70;;;23.34;31.05
60646;BME280;46462;32.608;-117.032;2023-11-22T10:32:51;99954.78;;;23.35;30.97
60646;BME280;46462;32.608;-117.032;2023-11-22T10:35:22;99952.22;;;23.39;30.85
60646;BME280;46462;32.608;-117.032;2023-11-22T10:37:53;99945.05;;;23.30;31.05
60646;BME280;46462;32.608;-117.032;2023-11-22T10:40:22;99932.58;;;23.33;31.01
60646;BME280;46462;32.608;-117.032;2023-11-22T10:42:54;99930.09;;;23.29;31.05
60646;BME280;46462;32.608;-117.032;2023-11-22T10:45:26;99934.88;;;23.28;31.03
60646;BME280;46462;32.608;-117.032;2023-11-22T10:47:55;99923.61;;;23.26;31.18
60646;BME280;46462;32.608;-117.032;2023-11-22T10:50:26;99931.78;;;23.30;31.12
60646;BME280;46462;32.608;-117.032;2023-11-22T10:52:58;99921.77;;;23.21;31.09
60646;BME280;46462;32.608;-117.032;2023-11-22T10:55:31;99918.64;;;23.12;31.37
60646;BME280;46462;32.608;-117.032;2023-11-22T10:58:02;99913.34;;;23.12;31.32
60646;BME280;46462;32.608;-117.032;2023-11-22T11:00:31;99912.56;;;23.10;31.43
60646;BME280;46462;32.608;-117.032;2023-11-22T11:03:01;99909.26;;;23.23;30.98
60646;BME280;46462;32.608;-117.032;2023-11-22T11:05:32;99907.25;;;23.32;30.94
60646;BME280;46462;32.608;-117.032;2023-11-22T11:08:08;99901.61;;;23.21;31.08
60646;BME280;46462;32.608;-117.032;2023-11-22T11:10:32;99899.95;;;23.31;30.84
60646;BME280;46462;32.608;-117.032;2023-11-22T11:13:02;99895.33;;;23.22;30.99
60646;BME280;46462;32.608;-117.032;2023-11-22T11:15:34;99896.54;;;23.19;30.95
60646;BME280;46462;32.608;-117.032;2023-11-22T11:18:05;99898.80;;;23.24;30.86
60646;BME280;46462;32.608;-117.032;2023-11-22T11:23:06;99905.87;;;23.15;31.22
60646;BME280;46462;32.608;-117.032;2023-11-22T11:25:36;99891.81;;;23.15;31.23
60646;BME280;46462;32.608;-117.032;2023-11-22T11:28:08;99890.79;;;23.05;31.40
60646;BME280;46462;32.608;-117.032;2023-11-22T11:30:43;99882.93;;;23.14;31.00
60646;BME280;46462;32.608;-117.032;2023-11-22T11:33:07;99891.02;;;23.19;30.94
60646;BME280;46462;32.608;-117.032;2023-11-22T11:35:40;99889.11;;;23.21;31.07
60646;BME280;46462;32.608;-117.032;2023-11-22T11:38:10;99891.48;;;23.17;31.02
60646;BME280;46462;32.608;-117.032;2023-11-22T11:40:41;99890.06;;;23.07;31.23
60646;BME280;46462;32.608;-117.032;2023-11-22T11:43:11;99882.09;;;23.10;31.15
60646;BME280;46462;32.608;-117.032;2023-11-22T11:45:43;99870.41;;;23.12;31.18
60646;BME280;46462;32.608;-117.032;2023-11-22T11:48:13;99866.10;;;23.25;30.72
60646;BME280;46462;32.608;-117.032;2023-11-22T11:50:44;99864.24;;;23.08;31.25
60646;BME280;46462;32.608;-117.032;2023-11-22T11:53:13;99867.78;;;23.18;30.86
60646;BME280;46462;32.608;-117.032;2023-11-22T11:55:44;99864.48;;;23.09;31.24
60646;BME280;46462;32.608;-117.032;2023-11-22T11:58:16;99861.90;;;23.28;30.69
60646;BME280;46462;32.608;-117.032;2023-11-22T12:00:46;99866.92;;;23.08;31.14
60646;BME280;46462;32.608;-117.032;2023-11-22T12:03:16;99871.05;;;23.08;31.09
60646;BME280;46462;32.608;-117.032;2023-11-22T12:05:48;99874.22;;;22.98;31.27
60646;BME280;46462;32.608;-117.032;2023-11-22T12:08:18;99874.31;;;23.00;31.27
60646;BME280;46462;32.608;-117.032;2023-11-22T12:10:49;99874.10;;;23.14;30.98
60646;BME280;46462;32.608;-117.032;2023-11-22T12:13:19;99876.96;;;23.03;31.13
60646;BME280;46462;32.608;-117.032;2023-11-22T12:15:52;99882.59;;;23.00;31.19
60646;BME280;46462;32.608;-117.032;2023-11-22T12:18:21;99878.97;;;22.99;31.26
60646;BME280;46462;32.608;-117.032;2023-11-22T12:20:55;99885.77;;;22.86;31.31
60646;BME280;46462;32.608;-117.032;2023-11-22T12:23:22;99886.67;;;22.96;31.19
60646;BME280;46462;32.608;-117.032;2023-11-22T12:25:56;99884.50;;;22.98;31.05
60646;BME280;46462;32.608;-117.032;2023-11-22T12:28:24;99884.73;;;23.03;30.98
60646;BME280;46462;32.608;-117.032;2023-11-22T12:30:55;99874.04;;;22.88;31.32
60646;BME280;46462;32.608;-117.032;2023-11-22T12:33:28;99861.58;;;22.96;30.95
60646;BME280;46462;32.608;-117.032;2023-11-22T12:35:56;99863.72;;;22.88;31.24
60646;BME280;46462;32.608;-117.032;2023-11-22T12:38:29;99859.75;;;23.03;30.77
60646;BME280;46462;32.608;-117.032;2023-11-22T12:40:58;99865.26;;;23.00;31.01